Caruth, Missouri
Current Conditions -  °F | °C
As of 2:53 PM on Friday 28 Nov 2014 (Local Time) from KHKA Reporting Station
Clear Clear  
Wind Chill: 53°   Ceiling: Unl
Heat Index: 53°   Visibility: 10mi
Dew Point: 27°   Wind: 17mph
Humidity: 37%   Direction: 190°S
Pressure: 30.15"   Gusts: NA
Location:  36.2279°N, 90.0425°W
Report Text: KHKA 282053Z AUTO 19015KT 10SM CLR 12/M03 A3015 RMK AO2 SLP211 T01171028 56043
Loading
Personal Weather Stations






























Interactive Weather Map New forecast layout! Learn more

10-Day Weather Forecast

Advertisements
Track Severe Weather on mobile